Station info - map view · info · telemetry · weather · raw · status · beacons · messages · bulletins · browse · moving · my account
Callsign, ship name or locator: Clear       
It is possible to search using wildcards (*?) after a prefix. Example: OH*
APRS station OE4ENU-9 - show graphs
Map loading...
Comment: 438.725MHz stby,Ewald Mobil,Msg are welcome!
Mic-E message: Off duty
Location: 47°49.36' N 16°13.94' E - locator JN87CT77VK - show map - static map
6.2 miles North bearing 360° from Lanzenkirchen, Politischer Bezirk Wiener Neustadt, Lower Austria, Austria [?]
7.4 miles Northeast bearing 34° from Breitenau, Politischer Bezirk Neunkirchen, Lower Austria, Austria
27.4 miles South bearing 194° from Vienna, Politischer Bezirk Wien (Stadt), Vienna, Austria
46.2 miles Southwest bearing 241° from Bratislava, Bratislavský, Slovakia
Last position: 2020-08-02 23:18:44 EDT (6h16m ago)
2020-08-03 05:18:44 CEST local time at Lanzenkirchen, Austria [?]
Altitude: 886 ft
Course: 265°
Speed: 12 MPH
Device: Yaesu: FTM-400DR (rig)
Last path: OE4ENU-9>TWTY36 via WIDE1-1,WIDE2-1,qAR,OE3XTR-2 (good)
Positions stored: 205710
Packet rate: 48 seconds between packets on average during 1964 seconds.
Other SSIDs: OE4ENU OE4ENU-10 OE4ENU-15 OE4ENU-2 OE4ENU-3 OE4ENU-4 OE4ENU-5 OE4ENU-7 OE4ENU-B OE4ENU-DP OE4ENU-N OE4ENU-Y
Stations near current position of OE4ENU-9 - show more
callsign distance last heard - EDT      callsign distance last heard - EDT
OE3SAD0.6 miles 129°2020-08-03 03:33:16 OE3SAD-70.6 miles 129°2020-08-03 04:58:49
OE3PMS-DP0.7 miles 231°2020-08-03 05:24:58 OE4RGD3.3 miles 120°2020-08-03 05:07:43
FW19573.5 miles 8°2020-08-03 05:32:07 NAVY10-153.7 miles 360°2020-08-03 01:30:37
OE3BHW-94.7 miles 358°2020-08-03 04:12:26 S09400405.1 miles 203°2020-07-04 23:15:09
S0940040_5.2 miles 202°2020-07-04 22:47:59 OE4XUB-DP5.8 miles 141°2020-08-03 05:19:35
OE3XNK B7.4 miles 285°2020-08-03 05:21:52 OE3XNK-B7.4 miles 285°2020-08-03 05:22:02
OE3XNK-DP7.4 miles 285°2020-08-03 05:19:35 OE3XNK-R7.4 miles 285°2020-08-03 05:21:02
OE3ELJ-157.5 miles 6°2020-08-03 05:33:56 OE3ELJ-107.5 miles 6°2020-08-03 05:30:15
OE4WUW-57.7 miles 72°2020-08-03 05:32:53 OE/NO-1488.2 miles 261°2020-07-19 13:51:41
OE6FEF-78.8 miles 356°2020-07-30 00:05:15 OE3MBU-DP8.9 miles 204°2020-08-03 05:17:19
Stations which heard OE4ENU-9 directly on radio –
callsign pkts first heard - EDT last heard longest (tx => rx) longest at - EDT
OE1XQR 8 2020-08-02 02:54:26 2020-08-02 09:00:00 JN87GS > JN88EE 29.7 miles 346° 2020-08-02 02:54:26
OE6XTR 89 2020-08-02 02:57:22 2020-08-02 23:18:44 JN87GT > JN77VN 37.1 miles 246° 2020-08-02 08:55:41
HG1PNY-1 7 2020-08-02 03:11:52 2020-08-02 08:53:22 JN87BO > JN87TN 72.2 miles 90° 2020-08-02 03:38:29
OE3XTR-2 71 2020-08-02 02:56:06 2020-08-02 23:18:44 JN87GS > JN87AT 23.9 miles 280° 2020-08-02 02:56:06
9A7KXP-1 4 2020-08-02 03:48:02 2020-08-02 08:14:42 JN87BL > JN75XV 110.7 miles 184° 2020-08-02 08:14:42
OE1IWA-11 5 2020-08-02 02:54:56 2020-08-02 23:05:47 JN87GS > JN88DD 29.2 miles 336° 2020-08-02 02:54:56
OE3PDB-3 2 2020-08-02 02:54:56 2020-08-02 03:17:48 JN87GS > JN88BG 40.4 miles 329° 2020-08-02 02:54:56
OE3XFW-10 1 2020-08-02 23:00:25 2020-08-02 23:00:25 JN87ES > JN78XD 32.3 miles 324° 2020-08-02 23:00:25
OE3XLR 2 2020-08-02 03:20:33 2020-08-02 03:43:07 JN87BN > JN77TX 37.9 miles 322° 2020-08-02 03:43:07
OE6XBF-11 4 2020-08-02 04:05:46 2020-08-02 04:13:46 JN77XF > JN76XU 26.7 miles 186° 2020-08-02 04:05:46
OE4WUW-5 1 2020-08-02 03:12:59 2020-08-02 03:12:59 JN87ES > JN87EU 6.6 miles 357° 2020-08-02 03:12:59
OE3PDB-10 2 2020-08-02 02:54:56 2020-08-02 03:17:48 JN87GS > JN88BG 40.4 miles 329° 2020-08-02 02:54:56
S59DTB-10 1 2020-08-02 03:46:19 2020-08-02 03:46:19 JN87BM > JN86AO 61.5 miles 183° 2020-08-02 03:46:19
OE6XG-1 2 2020-08-02 04:13:43 2020-08-02 07:46:07 JN87AE > JN77OD 37.6 miles 266° 2020-08-02 07:46:07
OE3XWJ-10 1 2020-08-02 02:54:56 2020-08-02 02:54:56 JN87GS > JN78QI 68.8 miles 306° 2020-08-02 02:54:56
9A7KXP-3 4 2020-08-02 03:47:58 2020-08-02 08:14:39 JN87BL > JN85DU 113.9 miles 176° 2020-08-02 08:14:39
OE4ENU-2 20 2020-08-02 02:57:22 2020-08-02 22:56:53 JN87DS > JN87FU 8.4 miles 66° 2020-08-02 03:17:17
S5YKO-2 1 2020-08-02 07:46:09 2020-08-02 07:46:09 JN87AE > JN76LL 69.5 miles 226° 2020-08-02 07:46:09
OE4SLC-2 15 2020-08-02 02:43:07 2020-08-02 23:04:40 JN87DS > JN87GS 10.7 miles 102° 2020-08-02 23:04:40
OE1IWA-12 3 2020-08-02 02:54:56 2020-08-02 22:49:59 JN87GS > JN88ED 28.2 miles 341° 2020-08-02 02:54:56

Only position packets which were originated by the station are shown here. The range statistics show some extra long hops, because some digipeaters do not correctly add themselves to the digipeater path. Please check the raw packets.
About this site
This page shows real-time information collected from the Automatic Position Reporting System Internet network (APRS-IS). APRS is used by amateur (ham) radio operators to transmit real-time position information, weather data, telemetry and messages over the radio. A vehicle equipped with a GPS receiver, a VHF transmitter or HF transceiver and a small computer device called a tracker transmits it's location, speed and course in a small data packet, which is then received by a nearby iGate receiving site which forwards the packet on the Internet. Systems connected to the Internet can send information on the APRS-IS without a radio transmitter, or collect and display information transmitted anywhere in the world.
User guide · FAQ · Blog · Discussion group · Linking to aprs.fi · AIS sites · Service status · Database statistics · Advertising on aprs.fi · Technical details · API · Change log · Planned changes · Credits and thanks · Terms Of Service · iPhone/iPad APRS